Time;durP1;ratioP1;P1;durP2;ratioP2;P2;SDS_P1;SDS_P2;PMS_P1;PMS_P2;Temp;Humidity;BMP_temperature;BMP_pressure;BME280_temperature;BME280_humidity;BME280_pressure;Samples;Min_cycle;Max_cycle;Signal;HPM_P1;HPM_P2
2022/11/09 00:01:16;;;;;;;14.37;5.60;;;;;;;19.95;62.26;99880.06;5090612;28;20443;-65
2022/11/09 00:03:42;;;;;;;15.67;6.00;;;;;;;19.94;62.25;99890.72;5081826;28;20895;-64
2022/11/09 00:06:07;;;;;;;12.63;4.73;;;;;;;19.94;62.52;99895.63;5068443;28;20253;-64
2022/11/09 00:08:38;;;;;;;15.27;6.00;;;;;;;19.93;62.53;99909.16;5070184;28;20266;-63
2022/11/09 00:11:05;;;;;;;15.83;5.73;;;;;;;20.03;61.91;99916.16;5082313;28;20194;-65
2022/11/09 00:13:30;;;;;;;13.10;4.67;;;;;;;20.04;61.96;99920.66;5090478;28;20957;-64
2022/11/09 00:15:59;;;;;;;20.90;5.17;;;;;;;20.07;61.65;99914.13;5088990;28;20417;-63
2022/11/09 00:18:24;;;;;;;9.70;4.87;;;;;;;20.14;61.40;99917.91;5089681;28;20187;-64
2022/11/09 00:20:50;;;;;;;8.03;4.70;;;;;;;20.07;61.70;99923.56;5081910;28;20451;-63
2022/11/09 00:23:15;;;;;;;10.87;5.20;;;;;;;20.02;61.54;99921.06;5084890;28;20242;-64
2022/11/09 00:25:41;;;;;;;14.00;5.67;;;;;;;19.95;61.12;99918.16;5051367;28;20268;-64
2022/11/09 00:28:06;;;;;;;11.27;5.13;;;;;;;19.89;61.51;99921.78;5071778;28;20198;-63
2022/11/09 00:30:32;;;;;;;14.77;4.70;;;;;;;19.87;61.49;99919.31;5090971;28;20167;-63
2022/11/09 00:32:57;;;;;;;10.83;4.80;;;;;;;19.82;61.72;99928.28;5091013;28;20170;-63
2022/11/09 00:35:22;;;;;;;13.60;4.40;;;;;;;19.79;62.05;99925.41;5092046;28;20208;-64
2022/11/09 00:37:48;;;;;;;12.90;5.80;;;;;;;19.75;62.16;99919.66;5090323;28;20170;-63
2022/11/09 00:40:13;;;;;;;7.60;4.17;;;;;;;19.76;62.26;99927.03;5079965;28;20182;-64
2022/11/09 00:42:39;;;;;;;12.10;4.77;;;;;;;19.73;62.30;99919.25;5068992;28;20249;-64
2022/11/09 00:45:05;;;;;;;10.00;4.70;;;;;;;19.73;62.34;99930.69;5070928;28;21437;-64
2022/11/09 00:47:30;;;;;;;9.57;4.83;;;;;;;19.74;62.37;99926.59;5080736;28;20185;-64
2022/11/09 00:49:56;;;;;;;14.70;4.63;;;;;;;19.77;62.27;99925.00;5079927;28;20237;-64
2022/11/09 00:52:21;;;;;;;9.30;4.00;;;;;;;19.76;62.37;99921.28;5071999;28;20162;-64
2022/11/09 00:54:46;;;;;;;9.87;5.03;;;;;;;19.76;62.46;99921.28;5090713;28;20183;-64
2022/11/09 00:57:12;;;;;;;10.00;4.73;;;;;;;19.75;62.65;99921.69;5091234;28;20174;-64
2022/11/09 00:59:38;;;;;;;8.50;4.40;;;;;;;19.72;63.25;99931.09;5091729;28;20682;-64
2022/11/09 01:02:03;;;;;;;9.37;4.77;;;;;;;19.71;62.69;99926.59;5091406;28;20428;-64
2022/11/09 01:04:29;;;;;;;9.27;4.30;;;;;;;19.72;62.82;99934.75;5076229;28;20195;-64
2022/11/09 01:06:54;;;;;;;9.33;4.50;;;;;;;19.73;62.92;99919.25;5070845;28;20167;-63
2022/11/09 01:09:19;;;;;;;9.97;4.50;;;;;;;19.71;62.96;99929.47;5083305;28;20174;-63
2022/11/09 01:11:45;;;;;;;13.03;4.80;;;;;;;19.71;62.94;99926.59;5090864;28;20155;-63
2022/11/09 01:14:10;;;;;;;9.10;4.13;;;;;;;19.73;62.93;99938.47;5090745;28;20177;-63
2022/11/09 01:16:36;;;;;;;10.07;4.67;;;;;;;19.70;62.93;99940.06;5090752;28;20181;-64
2022/11/09 01:19:01;;;;;;;12.80;5.17;;;;;;;19.68;62.98;99942.53;5090975;28;20174;-64
2022/11/09 01:21:27;;;;;;;13.83;4.80;;;;;;;19.68;63.21;99950.28;5090950;28;20186;-63
2022/11/09 01:23:53;;;;;;;8.07;3.70;;;;;;;19.68;63.33;99959.72;5091718;28;20178;-63
2022/11/09 01:26:18;;;;;;;9.03;4.80;;;;;;;19.71;63.40;99966.69;5056588;28;20193;-63
2022/11/09 01:28:44;;;;;;;10.30;3.90;;;;;;;19.68;63.24;99965.44;5090830;28;20438;-63
2022/11/09 01:31:14;;;;;;;7.90;4.80;;;;;;;19.68;63.48;99948.25;5091338;28;20219;-63
2022/11/09 01:33:39;;;;;;;7.80;3.60;;;;;;;19.68;63.49;99953.97;5091386;28;20155;-64
2022/11/09 01:36:08;;;;;;;7.00;4.20;;;;;;;19.67;63.31;99951.50;5091043;28;20897;-63
2022/11/09 01:38:35;;;;;;;10.03;4.10;;;;;;;19.67;63.24;99960.91;5091278;28;20159;-64
2022/11/09 01:41:00;;;;;;;10.47;4.50;;;;;;;19.69;63.33;99974.84;5072917;28;20409;-64
2022/11/09 01:43:26;;;;;;;9.30;4.20;;;;;;;19.70;63.16;99970.75;5091415;28;20396;-64
2022/11/09 01:46:08;;;;;;;7.97;4.30;;;;;;;19.69;63.40;99960.50;5090944;28;20420;-63
2022/11/09 01:48:37;;;;;;;6.30;3.70;;;;;;;19.67;63.27;99972.38;5068630;28;20171;-64
2022/11/09 01:51:07;;;;;;;12.57;4.47;;;;;;;19.63;63.56;99964.97;5083643;28;20460;-64
2022/11/09 01:53:33;;;;;;;5.30;3.87;;;;;;;19.65;63.63;99973.97;5090857;28;20408;-64
2022/11/09 01:56:01;;;;;;;8.80;4.47;;;;;;;19.64;63.61;99978.91;5091072;28;20839;-62
2022/11/09 01:58:29;;;;;;;6.53;3.97;;;;;;;19.59;63.48;99976.41;5091243;28;20415;-64
2022/11/09 02:00:55;;;;;;;7.40;4.80;;;;;;;19.62;63.62;99975.59;5091252;28;20866;-63
2022/11/09 02:03:28;;;;;;;9.27;3.63;;;;;;;19.62;63.52;99969.88;5060171;28;20409;-63
2022/11/09 02:05:53;;;;;;;6.70;4.37;;;;;;;19.61;63.72;99967.44;5090738;28;20187;-63
2022/11/09 02:08:20;;;;;;;8.50;4.17;;;;;;;19.61;63.31;99973.97;5090944;28;20431;-64
2022/11/09 02:10:51;;;;;;;8.43;3.77;;;;;;;19.61;63.69;99988.28;5052614;28;20236;-63
2022/11/09 02:13:17;;;;;;;9.67;3.87;;;;;;;19.60;63.72;99983.78;5070807;28;20390;-63
2022/11/09 02:15:43;;;;;;;6.47;3.70;;;;;;;19.61;63.54;99968.22;5052651;28;20532;-65
2022/11/09 02:18:08;;;;;;;8.37;3.53;;;;;;;19.60;63.75;99963.72;5087981;28;20182;-64
2022/11/09 02:20:53;;;;;;;8.37;4.00;;;;;;;19.60;63.64;99957.16;5072749;28;20178;-63
2022/11/09 02:23:19;;;;;;;12.80;4.37;;;;;;;19.59;63.70;99959.22;5072598;28;20162;-64
2022/11/09 02:25:48;;;;;;;7.40;3.83;;;;;;;19.62;63.71;99946.97;5056906;28;20976;-64
2022/11/09 02:28:14;;;;;;;7.13;4.10;;;;;;;19.58;63.90;99937.53;5076101;28;20171;-63
2022/11/09 02:30:40;;;;;;;7.13;3.83;;;;;;;19.62;63.66;99941.22;5076562;28;20504;-64
2022/11/09 02:33:05;;;;;;;8.73;3.60;;;;;;;19.61;63.59;99945.31;5076463;28;20162;-64
2022/11/09 02:35:30;;;;;;;7.03;4.00;;;;;;;19.61;63.64;99939.59;5094695;28;20170;-63
2022/11/09 02:37:57;;;;;;;6.10;3.43;;;;;;;19.58;63.89;99937.53;5079504;28;20262;-63
2022/11/09 02:40:25;;;;;;;6.73;3.80;;;;;;;19.61;63.58;99945.31;5090612;28;20683;-63
2022/11/09 02:42:51;;;;;;;8.47;4.13;;;;;;;19.58;63.78;99933.84;5076373;28;20400;-64
2022/11/09 02:45:17;;;;;;;5.67;3.57;;;;;;;19.58;63.72;99923.22;5072171;28;20457;-64
2022/11/09 02:47:42;;;;;;;5.50;3.50;;;;;;;19.57;63.77;99915.81;5093114;28;20193;-63
2022/11/09 02:50:08;;;;;;;6.77;3.50;;;;;;;19.58;63.86;99916.66;5093674;28;20230;-64
2022/11/09 02:52:33;;;;;;;8.27;4.17;;;;;;;19.57;63.79;99921.56;5075980;28;20597;-63
2022/11/09 02:54:59;;;;;;;9.00;3.87;;;;;;;19.55;63.78;99915.41;5093019;28;20167;-64
2022/11/09 02:57:24;;;;;;;12.17;3.53;;;;;;;19.59;63.86;99918.28;5090768;28;20190;-64
2022/11/09 02:59:50;;;;;;;7.60;3.77;;;;;;;19.59;63.71;99927.72;5094078;28;20163;-63
2022/11/09 03:02:15;;;;;;;6.53;3.20;;;;;;;19.58;63.75;99923.22;5093979;28;20167;-63
2022/11/09 03:04:41;;;;;;;6.87;3.43;;;;;;;19.57;63.76;99918.69;5058976;28;20693;-64
2022/11/09 03:07:06;;;;;;;5.50;3.50;;;;;;;19.55;63.82;99921.13;5075078;28;20531;-63
2022/11/09 03:09:32;;;;;;;6.27;3.30;;;;;;;19.54;63.71;99910.91;5094045;28;20672;-63
2022/11/09 03:11:57;;;;;;;6.73;3.13;;;;;;;19.54;63.90;99905.19;5093967;28;20166;-64
2022/11/09 03:14:22;;;;;;;5.90;3.70;;;;;;;19.55;63.80;99903.13;5093836;28;20162;-63
2022/11/09 03:16:48;;;;;;;7.43;3.80;;;;;;;19.53;63.94;99903.53;5093406;28;20182;-63
2022/11/09 03:19:13;;;;;;;5.40;3.30;;;;;;;19.56;63.95;99914.19;5093768;28;20190;-63
2022/11/09 03:21:39;;;;;;;10.50;3.83;;;;;;;19.56;63.79;99919.09;5093503;28;20171;-63
2022/11/09 03:24:05;;;;;;;5.93;3.93;;;;;;;19.56;63.74;99910.53;5093765;28;20171;-63
2022/11/09 03:26:30;;;;;;;6.47;3.87;;;;;;;19.56;63.80;99908.47;5093679;28;20268;-63
2022/11/09 03:28:55;;;;;;;5.80;3.13;;;;;;;19.54;63.85;99910.91;5093601;28;20175;-64
2022/11/09 03:31:21;;;;;;;6.60;3.47;;;;;;;19.55;63.76;99912.53;5093771;28;20178;-63
2022/11/09 03:33:46;;;;;;;6.60;3.40;;;;;;;19.55;63.75;99923.16;5093570;28;20163;-63
2022/11/09 03:36:12;;;;;;;7.17;3.40;;;;;;;19.52;63.92;99924.78;5093088;28;20170;-64
2022/11/09 03:38:37;;;;;;;7.77;3.40;;;;;;;19.57;64.11;99930.13;5093346;28;20224;-63
2022/11/09 03:41:03;;;;;;;5.97;3.30;;;;;;;19.55;63.89;99914.56;5093263;28;20216;-64
2022/11/09 03:43:28;;;;;;;6.23;3.10;;;;;;;19.53;63.77;99925.63;5075023;28;20174;-63
2022/11/09 03:45:54;;;;;;;5.37;3.20;;;;;;;19.53;63.83;99920.72;5093142;28;20187;-64
2022/11/09 03:48:19;;;;;;;6.13;3.00;;;;;;;19.52;63.75;99918.25;5093578;28;20221;-64
2022/11/09 03:50:45;;;;;;;6.20;3.40;;;;;;;19.54;63.90;99928.09;5092961;28;20222;-64
2022/11/09 03:53:10;;;;;;;8.00;3.70;;;;;;;19.55;63.73;99946.91;5089825;28;20545;-63
2022/11/09 03:55:36;;;;;;;8.77;3.27;;;;;;;19.52;64.02;99936.25;5092757;28;20147;-64
2022/11/09 03:58:02;;;;;;;5.03;2.77;;;;;;;19.51;64.18;99888.78;5090058;28;20166;-64
2022/11/09 04:00:28;;;;;;;5.03;3.10;;;;;;;19.53;64.08;99915.00;5113385;28;20890;-64
2022/11/09 04:02:53;;;;;;;6.03;3.20;;;;;;;19.54;63.83;99922.38;5109863;28;20443;-64
2022/11/09 04:05:19;;;;;;;7.20;3.43;;;;;;;19.52;64.04;99916.19;5072158;28;20558;-64
2022/11/09 04:07:49;;;;;;;9.53;3.27;;;;;;;19.50;63.88;99912.09;5071418;28;20500;-63
2022/11/09 04:10:14;;;;;;;7.33;3.10;;;;;;;19.53;64.15;99908.44;5086011;28;20170;-63
2022/11/09 04:12:39;;;;;;;5.87;3.10;;;;;;;19.52;63.88;99901.88;5074297;28;20491;-63
2022/11/09 04:15:05;;;;;;;5.50;3.40;;;;;;;19.50;64.07;99904.31;5092644;28;20161;-63
2022/11/09 04:17:31;;;;;;;8.30;3.37;;;;;;;19.49;64.03;99901.84;5092352;28;20190;-63
2022/11/09 04:19:56;;;;;;;3.73;2.77;;;;;;;19.51;64.01;99903.09;5092306;28;20227;-64
2022/11/09 04:22:21;;;;;;;6.07;2.80;;;;;;;19.52;63.89;99901.06;5092739;28;20186;-63
2022/11/09 04:24:47;;;;;;;5.10;3.03;;;;;;;19.51;63.98;99893.72;5092509;28;20187;-64
2022/11/09 04:27:12;;;;;;;7.77;3.60;;;;;;;19.51;63.98;99893.72;5092561;28;20174;-63
2022/11/09 04:29:38;;;;;;;9.27;2.93;;;;;;;19.47;63.97;99890.78;5092418;28;20166;-63
2022/11/09 04:32:03;;;;;;;6.23;3.27;;;;;;;19.49;64.00;99893.25;5092248;28;20155;-63
2022/11/09 04:34:29;;;;;;;5.57;3.50;;;;;;;19.53;64.00;99891.25;5092010;28;20216;-63
2022/11/09 04:36:54;;;;;;;6.53;3.40;;;;;;;19.52;63.83;99889.63;5092395;28;20923;-63
2022/11/09 04:39:19;;;;;;;5.50;3.30;;;;;;;19.51;63.96;99891.66;5092082;28;20171;-63
2022/11/09 04:41:45;;;;;;;6.10;2.70;;;;;;;19.50;64.02;99892.03;5092356;28;20174;-63
2022/11/09 04:44:10;;;;;;;9.20;4.20;;;;;;;19.48;64.05;99889.59;5092137;28;20174;-63
2022/11/09 04:46:36;;;;;;;4.50;2.60;;;;;;;19.52;64.31;99892.47;5091971;28;20609;-64
2022/11/09 04:49:01;;;;;;;6.40;3.17;;;;;;;19.49;64.13;99881.81;5090998;28;20638;-64
2022/11/09 04:51:27;;;;;;;5.90;3.10;;;;;;;19.51;64.03;99880.19;5088737;28;20218;-63
2022/11/09 04:53:52;;;;;;;7.13;3.40;;;;;;;19.49;64.37;99879.78;5090774;28;20183;-63
2022/11/09 04:56:18;;;;;;;6.80;3.00;;;;;;;19.48;64.14;99875.28;5090737;28;20170;-63
2022/11/09 04:58:43;;;;;;;5.73;2.63;;;;;;;19.51;64.00;99860.16;5072941;28;20174;-62
2022/11/09 05:01:10;;;;;;;6.70;3.43;;;;;;;19.49;64.04;99867.50;5091030;28;20166;-63
2022/11/09 05:03:35;;;;;;;5.07;3.00;;;;;;;19.48;64.08;99860.97;5055585;28;20198;-64
2022/11/09 05:06:30;;;;;;;10.67;3.27;;;;;;;19.49;64.01;99871.19;5090714;28;21106;-63
2022/11/09 05:08:46;;;;;;;10.53;3.13;;;;;;;19.50;63.95;99884.28;5090780;28;20649;-63
2022/11/09 05:11:12;;;;;;;4.70;2.87;;;;;;;19.52;64.14;99884.69;5090794;28;20420;-64
2022/11/09 05:13:37;;;;;;;4.60;2.53;;;;;;;19.52;64.07;99899.00;5090809;28;20166;-64
2022/11/09 05:16:03;;;;;;;4.60;2.87;;;;;;;19.50;64.16;99895.75;5068751;28;20186;-64
2022/11/09 05:18:28;;;;;;;6.10;3.40;;;;;;;19.54;63.88;99905.19;5072671;28;20178;-63
2022/11/09 05:20:58;;;;;;;4.07;2.70;;;;;;;19.50;64.03;99909.22;5090712;28;20175;-63
2022/11/09 05:26:07;;;;;;;6.23;3.20;;;;;;;19.52;63.89;99907.59;5090147;28;21071;-64
2022/11/09 05:28:32;;;;;;;6.10;3.03;;;;;;;19.50;64.02;99909.22;5090426;28;20416;-64
2022/11/09 05:30:58;;;;;;;4.13;2.90;;;;;;;19.50;63.98;99932.97;5072407;28;20170;-64
2022/11/09 05:33:23;;;;;;;4.13;2.23;;;;;;;19.51;64.00;99954.63;5090484;28;20185;-64
2022/11/09 05:35:49;;;;;;;5.37;3.40;;;;;;;19.54;63.97;99973.91;5090741;28;20155;-63
2022/11/09 05:38:14;;;;;;;9.23;3.07;;;;;;;19.50;64.01;99986.53;5090539;28;20178;-63
2022/11/09 05:40:39;;;;;;;4.37;2.70;;;;;;;19.52;63.98;99982.06;5090590;28;20162;-64
2022/11/09 05:43:05;;;;;;;6.47;2.63;;;;;;;19.53;64.04;99985.75;5090424;28;20159;-64
2022/11/09 05:45:30;;;;;;;6.40;3.03;;;;;;;19.50;63.95;99997.97;5089366;28;20210;-63
2022/11/09 05:47:56;;;;;;;5.70;2.97;;;;;;;19.50;63.88;99987.34;5090318;28;20178;-63
2022/11/09 05:50:21;;;;;;;4.47;2.70;;;;;;;19.52;64.06;99995.56;5049086;28;1155562;-63
2022/11/09 05:52:47;;;;;;;6.13;3.00;;;;;;;19.51;64.28;99991.88;5071699;28;20521;-63
2022/11/09 05:55:12;;;;;;;4.90;2.70;;;;;;;19.53;64.06;99989.44;5068391;28;20171;-63
2022/11/09 05:57:38;;;;;;;4.10;2.50;;;;;;;19.52;64.15;99992.69;5072151;28;20182;-63
2022/11/09 06:00:04;;;;;;;4.33;2.60;;;;;;;19.50;64.04;99997.97;5053916;28;20186;-63
2022/11/09 06:02:30;;;;;;;6.37;3.10;;;;;;;19.49;64.09;100008.63;5074930;28;20167;-63
2022/11/09 06:04:56;;;;;;;7.80;2.60;;;;;;;19.53;64.06;99986.59;5074024;28;20457;-64
2022/11/09 06:07:21;;;;;;;6.60;2.70;;;;;;;19.53;63.93;99991.47;5073971;28;20749;-64
2022/11/09 06:09:47;;;;;;;6.17;3.33;;;;;;;19.51;64.08;99991.88;5073629;28;20660;-64
2022/11/09 06:12:12;;;;;;;7.40;2.63;;;;;;;19.54;63.79;99984.53;5073852;28;20825;-64
2022/11/09 06:14:37;;;;;;;6.00;2.97;;;;;;;19.49;64.10;99988.59;5073567;28;20220;-63
2022/11/09 06:17:03;;;;;;;4.00;2.70;;;;;;;19.54;64.11;99991.09;5082062;28;20679;-64
2022/11/09 06:19:28;;;;;;;4.83;2.80;;;;;;;19.53;63.98;99991.47;5094009;28;20683;-63
2022/11/09 06:21:54;;;;;;;4.93;3.10;;;;;;;19.51;64.06;99991.88;5094914;28;20175;-63
2022/11/09 06:24:19;;;;;;;6.43;2.80;;;;;;;19.53;63.98;100000.06;5094687;28;20166;-64
2022/11/09 06:26:44;;;;;;;3.97;2.30;;;;;;;19.54;64.00;100008.28;5094949;28;20205;-64
2022/11/09 06:29:10;;;;;;;4.73;2.60;;;;;;;19.56;63.98;100008.69;5094650;28;20190;-63
2022/11/09 06:31:35;;;;;;;4.90;2.53;;;;;;;19.52;64.30;100004.16;5094827;28;20162;-64
2022/11/09 06:34:02;;;;;;;4.37;2.80;;;;;;;19.54;63.86;100007.44;5094246;28;20174;-64
2022/11/09 06:36:27;;;;;;;3.90;2.30;;;;;;;19.55;63.92;100014.78;5094007;28;20546;-63
2022/11/09 06:38:53;;;;;;;6.50;2.50;;;;;;;19.55;63.92;100015.63;5094121;28;20416;-64
2022/11/09 06:41:18;;;;;;;4.30;2.47;;;;;;;19.51;64.15;100020.50;5093792;28;20528;-63
2022/11/09 06:43:44;;;;;;;4.60;2.70;;;;;;;19.51;64.11;100029.09;5092741;28;20174;-63
2022/11/09 06:46:11;;;;;;;5.90;2.70;;;;;;;19.52;63.94;100024.19;5094166;28;20217;-64
2022/11/09 06:48:37;;;;;;;5.27;2.63;;;;;;;19.54;64.06;100030.34;5076350;28;20597;-64
2022/11/09 06:51:03;;;;;;;5.47;2.50;;;;;;;19.54;64.05;100036.06;5092664;28;20918;-64
2022/11/09 06:53:29;;;;;;;5.27;2.77;;;;;;;19.52;64.05;100027.88;5073252;28;20416;-65
2022/11/09 06:55:59;;;;;;;3.40;2.30;;;;;;;19.52;63.97;100027.88;5076693;28;20686;-64
2022/11/09 06:58:24;;;;;;;6.17;2.67;;;;;;;19.55;63.98;100026.25;5093844;28;20435;-64
2022/11/09 07:00:50;;;;;;;3.30;2.13;;;;;;;19.50;64.10;100021.72;5093925;28;20840;-64
2022/11/09 07:03:16;;;;;;;6.50;2.50;;;;;;;19.56;63.87;100025.88;5086638;28;20171;-64
2022/11/09 07:05:42;;;;;;;3.70;2.40;;;;;;;19.56;63.92;100019.34;5069619;28;20227;-64
2022/11/09 07:08:07;;;;;;;4.40;2.50;;;;;;;19.55;63.95;100006.22;5069830;28;20483;-65
2022/11/09 07:10:33;;;;;;;3.60;2.63;;;;;;;19.55;63.95;100009.91;5071117;28;20171;-64
2022/11/09 07:12:58;;;;;;;6.40;2.87;;;;;;;19.55;63.83;100009.06;5072899;28;20175;-64
2022/11/09 07:15:24;;;;;;;4.20;2.40;;;;;;;19.55;64.05;100015.63;5073424;28;20182;-64
2022/11/09 07:17:49;;;;;;;3.53;2.20;;;;;;;19.54;64.08;100008.28;5088508;28;20185;-64
2022/11/09 07:20:15;;;;;;;5.40;2.50;;;;;;;19.56;64.03;100011.53;5075440;28;20175;-64
2022/11/09 07:22:40;;;;;;;3.57;2.20;;;;;;;19.55;63.90;100007.03;5075636;28;20170;-64
2022/11/09 07:25:06;;;;;;;4.30;2.53;;;;;;;19.56;63.87;100000.09;5093394;28;20665;-64
2022/11/09 07:27:33;;;;;;;4.13;2.60;;;;;;;19.52;64.07;99998.44;5093489;28;20174;-64
2022/11/09 07:29:58;;;;;;;3.50;2.43;;;;;;;19.56;63.99;99994.38;5069184;28;20472;-64
2022/11/09 07:32:24;;;;;;;4.87;2.73;;;;;;;19.54;63.90;99996.81;5089576;28;20771;-65
2022/11/09 07:34:49;;;;;;;3.17;2.23;;;;;;;19.52;63.97;99999.22;5071925;28;20542;-65
2022/11/09 07:37:14;;;;;;;3.40;2.50;;;;;;;19.54;64.03;100008.28;5076672;28;20183;-64
2022/11/09 07:39:40;;;;;;;4.53;2.60;;;;;;;19.52;64.18;100016.41;5077585;28;20233;-64
2022/11/09 07:42:05;;;;;;;7.23;2.50;;;;;;;19.56;64.02;100011.53;5074405;28;20187;-65
2022/11/09 07:44:31;;;;;;;4.70;2.20;;;;;;;19.51;65.10;100017.63;5090546;28;20603;-64
2022/11/09 07:46:56;;;;;;;7.77;3.23;;;;;;;20.01;67.39;100013.97;5090739;28;20186;-64
2022/11/09 07:49:22;;;;;;;8.93;5.60;;;;;;;20.32;67.80;100022.00;5089740;28;20170;-64
2022/11/09 07:51:47;;;;;;;19.97;3.37;;;;;;;20.12;67.20;100014.91;5092594;28;20214;-64
2022/11/09 07:54:13;;;;;;;7.17;2.87;;;;;;;19.90;65.71;100026.56;5076825;28;20195;-64
2022/11/09 07:56:38;;;;;;;6.93;2.90;;;;;;;19.90;65.44;100027.41;5075934;28;20182;-64
2022/11/09 07:59:04;;;;;;;7.73;2.83;;;;;;;19.92;64.86;100029.88;5091121;28;20186;-66
2022/11/09 08:01:30;;;;;;;5.93;2.70;;;;;;;19.85;64.88;100024.06;5087231;28;20191;-66
2022/11/09 08:03:56;;;;;;;6.50;2.17;;;;;;;19.79;64.60;100014.19;5078685;28;20211;-65
2022/11/09 08:06:23;;;;;;;5.13;2.30;;;;;;;19.81;64.15;100012.59;5081775;28;20545;-66
2022/11/09 08:08:48;;;;;;;6.23;2.90;;;;;;;19.83;64.18;100015.91;5072777;28;20175;-64
2022/11/09 08:11:14;;;;;;;5.73;2.70;;;;;;;19.83;63.92;100018.75;5061499;28;20444;-65
2022/11/09 08:13:39;;;;;;;7.80;2.10;;;;;;;19.83;63.85;100027.34;5080091;28;20187;-65
2022/11/09 08:16:05;;;;;;;4.43;2.20;;;;;;;19.89;63.56;100034.34;5072051;28;20187;-65
2022/11/09 08:18:31;;;;;;;7.20;2.33;;;;;;;19.90;63.44;100043.75;5073604;28;20190;-66
2022/11/09 08:20:56;;;;;;;3.40;1.80;;;;;;;19.88;63.21;100034.75;5084830;28;20179;-65
2022/11/09 08:23:22;;;;;;;7.07;2.10;;;;;;;20.06;63.41;100038.59;5072585;28;20255;-65
2022/11/09 08:25:48;;;;;;;8.80;2.93;;;;;;;20.13;64.13;100032.94;5076127;28;20666;-65
2022/11/09 08:28:15;;;;;;;4.30;2.40;;;;;;;20.14;63.12;100035.41;5081706;28;20259;-66
2022/11/09 08:30:41;;;;;;;8.60;3.03;;;;;;;20.13;63.59;100041.53;5053124;28;20494;-64
2022/11/09 08:33:06;;;;;;;9.43;2.37;;;;;;;20.12;64.16;100037.84;5076266;28;20433;-66
2022/11/09 08:35:32;;;;;;;5.73;2.23;;;;;;;20.14;64.43;100041.13;5061699;28;20501;-65
2022/11/09 08:38:00;;;;;;;5.40;2.83;;;;;;;20.12;64.79;100045.63;5084617;28;20182;-65
2022/11/09 08:40:25;;;;;;;5.97;2.20;;;;;;;20.15;64.56;100039.06;5061753;28;20248;-66
2022/11/09 08:42:51;;;;;;;6.33;2.00;;;;;;;20.17;64.82;100043.19;5070205;28;20429;-66
2022/11/09 08:45:17;;;;;;;8.73;2.63;;;;;;;20.10;64.31;100043.16;5074592;28;20206;-66
2022/11/09 08:47:42;;;;;;;3.90;2.03;;;;;;;20.03;64.00;100043.06;5047389;28;20897;-66
2022/11/09 08:50:08;;;;;;;4.60;2.20;;;;;;;19.93;63.47;100040.94;5046673;28;20283;-66
2022/11/09 08:52:34;;;;;;;5.57;2.17;;;;;;;19.91;64.05;100040.50;5070332;28;20189;-66
2022/11/09 08:54:59;;;;;;;3.53;1.90;;;;;;;19.95;63.67;100041.38;5053614;28;20425;-66
2022/11/09 08:57:25;;;;;;;4.67;2.03;;;;;;;19.99;63.18;100047.13;5076835;28;20829;-66
2022/11/09 08:59:51;;;;;;;2.73;1.60;;;;;;;19.99;63.49;100042.22;5056363;28;21261;-65
2022/11/09 09:02:16;;;;;;;3.70;1.80;;;;;;;20.04;62.90;100044.72;5071694;28;20182;-66
2022/11/09 09:04:42;;;;;;;4.13;1.50;;;;;;;20.08;63.00;100042.75;5074000;28;20198;-66
2022/11/09 09:07:08;;;;;;;3.60;1.53;;;;;;;20.04;62.79;100046.75;5072499;28;20182;-65
2022/11/09 09:09:33;;;;;;;4.20;1.67;;;;;;;20.02;62.70;100046.34;5057695;28;20263;-66
2022/11/09 09:11:59;;;;;;;6.47;2.20;;;;;;;19.96;62.89;100060.19;5054890;28;20248;-65
2022/11/09 09:14:24;;;;;;;4.20;1.73;;;;;;;19.93;62.78;100055.28;5059309;28;20405;-66
2022/11/09 09:16:50;;;;;;;5.53;1.60;;;;;;;19.89;62.72;100048.69;5077620;28;20281;-66
2022/11/09 09:19:15;;;;;;;8.43;2.20;;;;;;;19.96;63.11;100051.59;5072000;28;20191;-66
2022/11/09 09:21:41;;;;;;;5.40;2.10;;;;;;;20.03;62.68;100054.53;5058082;28;20557;-66
2022/11/09 09:24:07;;;;;;;10.67;2.70;;;;;;;19.93;62.38;100058.13;5054204;28;20229;-67
2022/11/09 09:26:32;;;;;;;4.10;1.93;;;;;;;19.81;63.09;100049.81;5074119;28;21130;-66
2022/11/09 09:28:58;;;;;;;3.47;1.67;;;;;;;19.76;63.15;100044.47;5078473;28;20715;-66
2022/11/09 09:31:23;;;;;;;4.83;2.03;;;;;;;19.69;63.16;100050.13;5074476;28;20186;-65
2022/11/09 09:33:48;;;;;;;8.43;2.80;;;;;;;19.73;63.78;100048.13;5068272;28;20801;-65
2022/11/09 09:36:20;;;;;;;7.57;2.70;;;;;;;19.74;63.68;100051.81;5078103;28;20653;-65
2022/11/09 09:38:45;;;;;;;7.33;2.10;;;;;;;19.76;63.19;100055.91;5056164;28;20191;-66
2022/11/09 09:41:44;;;;;;;7.80;2.40;;;;;;;19.73;63.63;100062.47;5078939;28;20475;-65
2022/11/09 09:44:32;;;;;;;9.37;2.43;;;;;;;19.72;63.10;100066.50;5057435;28;20641;-66
2022/11/09 09:47:03;;;;;;;9.20;2.47;;;;;;;19.69;63.72;100067.31;5076607;28;20816;-66
2022/11/09 09:49:30;;;;;;;5.23;2.40;;;;;;;19.72;63.24;100060.78;5074928;28;20439;-66
2022/11/09 09:51:58;;;;;;;6.60;2.50;;;;;;;19.70;62.65;100063.22;5057309;28;20499;-66
2022/11/09 09:54:25;;;;;;;4.17;2.30;;;;;;;19.71;62.95;100058.34;5075122;28;20433;-66
2022/11/09 09:56:53;;;;;;;8.80;2.23;;;;;;;19.68;63.44;100068.53;5060650;28;21249;-65
2022/11/09 09:59:38;;;;;;;9.40;2.60;;;;;;;19.67;64.31;100063.22;5052579;28;20524;-66
2022/11/09 10:02:16;;;;;;;8.63;2.20;;;;;;;19.70;64.26;100071.00;5066772;28;20416;-66
2022/11/09 10:04:41;;;;;;;11.80;2.20;;;;;;;19.71;64.17;100069.81;5057003;28;20553;-66
2022/11/09 10:07:35;;;;;;;11.50;2.73;;;;;;;19.72;64.13;100069.38;5073633;28;20936;-66
2022/11/09 10:10:28;;;;;;;11.30;2.20;;;;;;;19.73;64.21;100071.06;5060049;28;20175;-66
2022/11/09 10:13:36;;;;;;;7.53;2.47;;;;;;;19.74;64.11;100081.28;5064917;28;20432;-66
2022/11/09 10:16:24;;;;;;;7.27;1.97;;;;;;;19.73;64.28;100081.69;5051541;28;20420;-66
2022/11/09 10:19:07;;;;;;;8.00;2.20;;;;;;;19.70;64.62;100080.41;5058096;28;20420;-66
2022/11/09 10:22:10;;;;;;;9.63;2.77;;;;;;;19.69;64.53;100075.06;5054580;28;20429;-66
2022/11/09 10:24:41;;;;;;;8.20;2.40;;;;;;;19.70;64.52;100077.56;5062162;28;20463;-66
2022/11/09 10:27:28;;;;;;;8.27;2.60;;;;;;;19.70;64.54;100079.59;5075968;28;20472;-66
2022/11/09 10:29:54;;;;;;;7.80;2.00;;;;;;;19.71;64.67;100078.41;5072308;28;20495;-66
2022/11/09 10:32:21;;;;;;;5.07;2.03;;;;;;;19.64;64.66;100084.88;5078896;28;20944;-66
2022/11/09 10:35:04;;;;;;;7.20;2.40;;;;;;;19.64;64.97;100084.88;5055303;28;20175;-66
2022/11/09 10:37:40;;;;;;;7.50;2.03;;;;;;;19.60;65.03;100077.44;5081456;28;20425;-65
2022/11/09 10:40:12;;;;;;;6.83;2.23;;;;;;;19.59;65.05;100070.06;5068110;28;20435;-65
2022/11/09 10:42:37;;;;;;;5.43;2.10;;;;;;;19.59;64.78;100076.63;5089873;28;20421;-66
2022/11/09 10:45:24;;;;;;;5.93;2.47;;;;;;;19.57;64.73;100070.47;5079350;28;20465;-65
2022/11/09 10:47:50;;;;;;;5.57;2.03;;;;;;;19.59;64.45;100064.34;5085099;28;20264;-65
2022/11/09 10:50:38;;;;;;;7.73;2.17;;;;;;;19.63;64.67;100062.34;5064112;28;20479;-66
2022/11/09 10:53:20;;;;;;;10.97;2.17;;;;;;;19.62;64.63;100067.22;5074058;28;21188;-65
2022/11/09 10:55:56;;;;;;;7.63;1.80;;;;;;;19.65;64.81;100066.47;5050637;28;20421;-65
2022/11/09 10:58:31;;;;;;;4.37;2.20;;;;;;;19.66;64.51;100058.69;5070731;28;20427;-66
2022/11/09 11:01:04;;;;;;;3.87;1.90;;;;;;;19.67;64.39;100061.16;5069588;28;20452;-65
2022/11/09 11:03:32;;;;;;;5.97;2.03;;;;;;;19.68;64.56;100059.13;5064519;28;20448;-66
2022/11/09 11:06:17;;;;;;;6.30;1.83;;;;;;;19.67;64.85;100060.34;5079216;28;20510;-65
2022/11/09 11:08:44;;;;;;;7.30;2.00;;;;;;;19.70;64.92;100068.13;5067120;28;20435;-65
2022/11/09 11:11:13;;;;;;;8.93;2.30;;;;;;;19.69;64.57;100061.59;5059319;28;20989;-66
2022/11/09 11:13:38;;;;;;;6.13;1.93;;;;;;;19.66;64.91;100062.38;5075466;28;20433;-66
2022/11/09 11:16:23;;;;;;;4.33;1.70;;;;;;;19.68;64.78;100073.44;5070333;28;20432;-66
2022/11/09 11:18:48;;;;;;;4.47;1.83;;;;;;;19.69;64.68;100075.06;5076621;28;20183;-66
2022/11/09 11:21:18;;;;;;;4.00;2.10;;;;;;;19.66;64.68;100065.22;5040598;28;20511;-66
2022/11/09 11:23:44;;;;;;;3.40;1.57;;;;;;;19.67;64.83;100075.47;5067295;28;20187;-65
2022/11/09 11:26:21;;;;;;;9.50;2.30;;;;;;;19.67;64.75;100069.75;5064896;28;20499;-66
2022/11/09 11:28:52;;;;;;;15.30;2.30;;;;;;;19.64;64.88;100076.28;5083798;28;20167;-66
2022/11/09 11:31:18;;;;;;;2.83;1.43;;;;;;;19.66;64.96;100073.81;5073023;28;20432;-66
2022/11/09 11:33:44;;;;;;;4.73;2.27;;;;;;;19.65;64.91;100074.22;5075064;28;20477;-66